トロント/ピアソン の空港の天気 - METARとTAF

トロント・ピアソン国際空港 ( CYYZ / YYZ ) - カナダ オンタリオ州トロント
飛行場実況気象(Metar)
観測時間01/22 09:00 EST (01/22 14:00 UTC)
風向・風速西北西 9m/s
視程10km以上
天気現象
少しの雲 雲底高度 610m
全天の8割程度の雲 雲底高度 1830m
全天を覆う雲 雲底高度 2440m
気温-1℃
湿度69%
気圧1006.1hPa
METARCYYZ 221400Z 30018KT 15SM FEW020 BKN060 OVC080 M01/M06 A2969 RMK CF1SC6AC1 SLP061
過去の天気等 Google飛行場航空写真 Wunderground天気予報

過去48時間のMETAR

飛行場予報(TAF)
発表時間: 1/22 09:38 EST (1/22 14:38 UTC)
予報対象時間: 22日10時 EST ~ 23日13時 EST
風向・風速西北西 8m/s 瞬間風速 13m/s
視程10km以上
全天の4割程度の雲 雲底高度 610m
全天を覆う雲 雲底高度 1830m
22日10時 EST ~ 22日13時 EST に一時的に
視程8050m
天気現象弱いしゅう雪
全天の8割程度の雲 雲底高度 610m
全天を覆う雲 雲底高度 1220m
22日13時 EST から
風向・風速北西 8m/s 瞬間風速 13m/s
視程10km以上
天気現象弱いしゅう雪
全天の8割程度の雲 雲底高度 910m
22日22時 EST から
風向・風速西北西 6m/s
視程10km以上
全天の4割程度の雲 雲底高度 1520m
23日1時 EST ~ 23日3時 EST に徐々に
風向・風速北北西 3m/s
TAF CYYZ 221438Z 2215/2318 30015G25KT P6SM SCT020 OVC060
TEMPO 2215/2218 5SM -SHSN BKN020 OVC040
FM221800 31015G25KT P6SM -SHSN BKN030
FM230300 30012KT P6SM SCT050
BECMG 2306/2308 33006KT RMK NXT FCST BY 221800Z